Time;durP1;ratioP1;P1;durP2;ratioP2;P2;SDS_P1;SDS_P2;PMS_P1;PMS_P2;Temp;Humidity;BMP_temperature;BMP_pressure;BME280_temperature;BME280_humidity;BME280_pressure;Samples;Min_cycle;Max_cycle;Signal;HPM_P1;HPM_P2
2022/10/20 00:00:51;;;;;;;9.40;4.40;;;;;;;;;;5014160;28;20037;-84
2022/10/20 00:03:17;;;;;;;8.32;4.13;;;;;;;;;;5016310;28;20500;-84
2022/10/20 00:05:43;;;;;;;6.75;4.25;;;;;;;;;;5017029;28;20072;-84
2022/10/20 00:08:09;;;;;;;7.78;4.05;;;;;;;;;;5003292;28;20121;-84
2022/10/20 00:10:35;;;;;;;7.05;4.50;;;;;;;;;;4996269;28;20037;-84
2022/10/20 00:13:01;;;;;;;8.65;4.30;;;;;;;;;;5005397;28;20052;-84
2022/10/20 00:15:27;;;;;;;7.53;4.05;;;;;;;;;;5016898;28;20034;-83
2022/10/20 00:17:53;;;;;;;8.27;4.07;;;;;;;;;;5015880;28;20022;-84
2022/10/20 00:20:19;;;;;;;7.40;4.32;;;;;;;;;;5012519;28;20040;-84
2022/10/20 00:22:45;;;;;;;7.05;4.68;;;;;;;;;;5015803;28;20033;-83
2022/10/20 00:25:11;;;;;;;8.02;4.80;;;;;;;;;;5016811;28;20032;-84
2022/10/20 00:27:37;;;;;;;7.70;4.15;;;;;;;;;;5016350;28;20030;-84
2022/10/20 00:30:03;;;;;;;7.88;4.95;;;;;;;;;;5012808;28;20056;-83
2022/10/20 00:32:29;;;;;;;7.07;4.07;;;;;;;;;;4997778;28;20026;-83
2022/10/20 00:34:56;;;;;;;8.23;4.05;;;;;;;;;;4997099;28;20626;-84
2022/10/20 00:37:22;;;;;;;7.28;4.40;;;;;;;;;;4997484;28;20061;-84
2022/10/20 00:39:48;;;;;;;8.38;4.45;;;;;;;;;;4996597;28;20042;-84
2022/10/20 00:42:15;;;;;;;8.60;4.60;;;;;;;;;;4999091;28;20030;-84
2022/10/20 00:44:50;;;;;;;9.77;4.97;;;;;;;;;;5010508;28;20034;-84
2022/10/20 00:47:19;;;;;;;8.85;4.82;;;;;;;;;;4995646;28;20027;-84
2022/10/20 00:49:45;;;;;;;9.13;5.05;;;;;;;;;;4995441;28;20506;-84
2022/10/20 00:52:11;;;;;;;8.52;4.80;;;;;;;;;;4997044;28;20046;-84
2022/10/20 00:54:38;;;;;;;8.48;4.43;;;;;;;;;;5011260;28;20041;-84
2022/10/20 00:57:04;;;;;;;8.70;4.85;;;;;;;;;;5016343;28;20025;-84
2022/10/20 00:59:33;;;;;;;8.40;4.65;;;;;;;;;;5015913;28;20029;-84
2022/10/20 01:02:00;;;;;;;8.23;4.50;;;;;;;;;;5001767;28;20675;-84
2022/10/20 01:04:28;;;;;;;9.68;4.57;;;;;;;;;;5010524;28;20028;-84
2022/10/20 01:06:54;;;;;;;6.85;4.18;;;;;;;;;;4997063;28;20397;-84
2022/10/20 01:09:20;;;;;;;7.90;5.25;;;;;;;;;;5015125;28;20038;-83
2022/10/20 01:12:05;;;;;;;8.05;5.03;;;;;;;;;;5015384;28;20069;-83
2022/10/20 01:14:34;;;;;;;7.82;4.15;;;;;;;;;;4997902;28;20022;-84
2022/10/20 01:17:06;;;;;;;8.55;4.32;;;;;;;;;;5005038;28;20022;-84
2022/10/20 01:19:51;;;;;;;9.35;4.72;;;;;;;;;;5017881;28;20382;-84
2022/10/20 01:22:23;;;;;;;8.98;5.50;;;;;;;;;;5016103;28;20121;-84
2022/10/20 01:24:55;;;;;;;6.97;4.57;;;;;;;;;;5018070;28;20057;-84
2022/10/20 01:27:25;;;;;;;6.82;4.50;;;;;;;;;;5014726;28;20060;-84
2022/10/20 01:30:12;;;;;;;7.63;4.78;;;;;;;;;;5017931;28;20030;-84
2022/10/20 01:32:40;;;;;;;7.60;4.85;;;;;;;;;;5015872;28;20076;-84
2022/10/20 01:35:06;;;;;;;8.27;4.25;;;;;;;;;;5017511;28;20049;-84
2022/10/20 01:37:39;;;;;;;11.07;5.05;;;;;;;;;;5007381;28;20089;-84
2022/10/20 01:40:10;;;;;;;9.77;4.75;;;;;;;;;;4998074;28;20121;-84
2022/10/20 01:42:36;;;;;;;8.30;5.20;;;;;;;;;;5015239;28;20030;-84
2022/10/20 01:45:04;;;;;;;7.57;4.88;;;;;;;;;;5023576;28;20018;-83
2022/10/20 01:47:32;;;;;;;8.07;5.07;;;;;;;;;;5007119;28;20022;-83
2022/10/20 01:49:58;;;;;;;7.63;4.97;;;;;;;;;;5012919;28;20517;-84
2022/10/20 01:52:24;;;;;;;7.93;4.47;;;;;;;;;;5015306;28;20457;-84
2022/10/20 01:54:50;;;;;;;7.93;4.57;;;;;;;;;;5002456;28;20029;-84
2022/10/20 01:57:19;;;;;;;9.02;5.43;;;;;;;;;;5016005;28;20030;-84
2022/10/20 01:59:48;;;;;;;7.32;4.43;;;;;;;;;;5007271;28;20340;-84
2022/10/20 02:02:20;;;;;;;7.28;4.70;;;;;;;;;;5015481;28;20026;-84
2022/10/20 02:04:58;;;;;;;9.45;5.25;;;;;;;;;;5000746;28;20402;-84
2022/10/20 02:07:26;;;;;;;7.45;4.82;;;;;;;;;;5000438;28;20026;-84
2022/10/20 02:09:55;;;;;;;8.70;4.72;;;;;;;;;;5003816;28;20034;-84
2022/10/20 02:12:27;;;;;;;9.13;5.00;;;;;;;;;;5007516;28;20080;-84
2022/10/20 02:14:53;;;;;;;7.57;4.32;;;;;;;;;;5019994;28;20076;-84
2022/10/20 02:17:20;;;;;;;8.73;4.82;;;;;;;;;;5019772;28;20141;-84
2022/10/20 02:19:48;;;;;;;7.03;4.50;;;;;;;;;;5018100;28;20049;-84
2022/10/20 02:22:14;;;;;;;7.78;4.53;;;;;;;;;;5008707;28;20045;-84
2022/10/20 02:24:41;;;;;;;8.35;4.68;;;;;;;;;;5019413;28;20585;-84
2022/10/20 02:27:10;;;;;;;7.88;5.22;;;;;;;;;;5000215;28;20091;-84
2022/10/20 02:29:39;;;;;;;8.25;5.00;;;;;;;;;;4998503;28;20085;-84
2022/10/20 02:32:06;;;;;;;7.97;4.45;;;;;;;;;;5016484;28;20030;-84
2022/10/20 02:34:32;;;;;;;8.93;4.80;;;;;;;;;;5013867;28;20026;-83
2022/10/20 02:36:58;;;;;;;7.75;4.95;;;;;;;;;;5000092;28;20046;-83
2022/10/20 02:39:25;;;;;;;8.13;5.00;;;;;;;;;;5002748;28;20048;-83
2022/10/20 02:41:51;;;;;;;8.77;5.40;;;;;;;;;;5017754;28;20080;-84
2022/10/20 02:44:17;;;;;;;11.90;5.43;;;;;;;;;;5012150;28;20121;-84
2022/10/20 02:46:43;;;;;;;9.35;5.70;;;;;;;;;;4999162;28;20026;-84
2022/10/20 02:49:09;;;;;;;11.25;5.80;;;;;;;;;;5012549;28;20045;-84
2022/10/20 02:51:35;;;;;;;9.50;5.43;;;;;;;;;;5018143;28;20224;-84
2022/10/20 02:54:01;;;;;;;11.85;6.45;;;;;;;;;;5014907;28;20026;-84
2022/10/20 02:56:27;;;;;;;9.13;5.80;;;;;;;;;;4999855;28;20034;-84
2022/10/20 02:58:53;;;;;;;10.05;5.90;;;;;;;;;;4998339;28;20019;-84
2022/10/20 03:01:21;;;;;;;12.50;6.70;;;;;;;;;;5016333;28;20490;-84
2022/10/20 03:03:47;;;;;;;10.82;5.57;;;;;;;;;;5005947;28;20064;-84
2022/10/20 03:06:14;;;;;;;9.68;5.60;;;;;;;;;;4998317;28;20077;-84
2022/10/20 03:08:41;;;;;;;10.15;5.70;;;;;;;;;;4999626;28;20530;-84
2022/10/20 03:11:07;;;;;;;10.82;5.50;;;;;;;;;;5013870;28;20034;-84
2022/10/20 03:13:33;;;;;;;8.52;5.03;;;;;;;;;;5019260;28;20544;-84
2022/10/20 03:16:00;;;;;;;9.23;5.85;;;;;;;;;;5018799;28;20374;-83
2022/10/20 03:18:26;;;;;;;11.05;6.10;;;;;;;;;;5018173;28;20025;-84
2022/10/20 03:20:52;;;;;;;9.65;5.15;;;;;;;;;;5016348;28;20185;-84
2022/10/20 03:23:18;;;;;;;11.55;6.05;;;;;;;;;;5019446;28;20100;-83
2022/10/20 03:25:44;;;;;;;10.18;6.32;;;;;;;;;;5015553;28;20093;-84
2022/10/20 03:28:10;;;;;;;8.35;5.28;;;;;;;;;;5004603;28;20030;-83
2022/10/20 03:30:36;;;;;;;11.38;7.65;;;;;;;;;;5011628;28;20529;-84
2022/10/20 03:33:02;;;;;;;11.82;7.07;;;;;;;;;;4997111;28;20022;-84
2022/10/20 03:35:28;;;;;;;10.27;7.28;;;;;;;;;;5014231;28;20500;-84
2022/10/20 03:37:54;;;;;;;9.93;6.07;;;;;;;;;;5014094;28;20033;-84
2022/10/20 03:40:20;;;;;;;11.50;7.03;;;;;;;;;;5014395;28;20036;-84
2022/10/20 03:42:47;;;;;;;12.70;7.03;;;;;;;;;;5014791;28;20033;-84
2022/10/20 03:45:14;;;;;;;12.68;7.95;;;;;;;;;;5022184;28;20028;-84
2022/10/20 03:47:40;;;;;;;8.73;5.68;;;;;;;;;;5034492;28;20439;-83
2022/10/20 03:50:06;;;;;;;10.85;5.88;;;;;;;;;;5016412;28;20030;-84
2022/10/20 03:52:32;;;;;;;8.07;5.20;;;;;;;;;;5007999;28;20034;-83
2022/10/20 03:54:58;;;;;;;9.32;5.78;;;;;;;;;;5004323;28;20435;-83
2022/10/20 03:57:24;;;;;;;10.32;5.55;;;;;;;;;;5016400;28;20022;-83
2022/10/20 03:59:50;;;;;;;11.60;6.78;;;;;;;;;;5006578;28;20550;-83
2022/10/20 04:02:29;;;;;;;9.35;5.55;;;;;;;;;;5014538;28;20025;-83
2022/10/20 04:04:55;;;;;;;10.50;6.70;;;;;;;;;;5014531;28;20030;-82
2022/10/20 04:07:21;;;;;;;9.77;6.22;;;;;;;;;;5015124;28;20041;-82
2022/10/20 04:09:47;;;;;;;11.25;7.05;;;;;;;;;;5010571;28;20034;-83
2022/10/20 04:12:13;;;;;;;10.15;6.90;;;;;;;;;;5013263;28;20036;-83
2022/10/20 04:14:40;;;;;;;12.40;7.18;;;;;;;;;;5006119;28;20026;-83
2022/10/20 04:17:06;;;;;;;17.38;6.90;;;;;;;;;;5001455;28;20021;-84
2022/10/20 04:19:32;;;;;;;10.15;6.07;;;;;;;;;;5016166;28;20033;-84
2022/10/20 04:21:58;;;;;;;10.27;6.53;;;;;;;;;;5023595;28;20042;-84
2022/10/20 04:24:24;;;;;;;12.60;7.78;;;;;;;;;;5006647;28;20022;-84
2022/10/20 04:26:50;;;;;;;12.15;7.97;;;;;;;;;;5012062;28;20026;-84
2022/10/20 04:29:16;;;;;;;11.50;7.00;;;;;;;;;;5018289;28;20104;-84
2022/10/20 04:31:43;;;;;;;13.23;6.97;;;;;;;;;;5025037;28;20036;-84
2022/10/20 04:34:09;;;;;;;10.45;6.15;;;;;;;;;;5032636;28;20033;-84
2022/10/20 04:36:35;;;;;;;9.90;6.40;;;;;;;;;;5017943;28;20053;-82
2022/10/20 04:39:01;;;;;;;10.43;6.03;;;;;;;;;;4997414;28;20034;-84
2022/10/20 04:41:27;;;;;;;10.90;6.22;;;;;;;;;;4998215;28;20026;-84
2022/10/20 04:43:53;;;;;;;9.80;5.55;;;;;;;;;;5016120;28;20026;-84
2022/10/20 04:46:19;;;;;;;10.15;6.40;;;;;;;;;;5014545;28;20113;-83
2022/10/20 04:48:45;;;;;;;9.40;6.10;;;;;;;;;;4999605;28;20056;-83
2022/10/20 04:51:12;;;;;;;10.65;6.38;;;;;;;;;;5002472;28;20685;-84
2022/10/20 04:53:39;;;;;;;9.07;6.07;;;;;;;;;;5032766;28;20022;-84
2022/10/20 04:56:06;;;;;;;9.35;5.50;;;;;;;;;;4997586;28;20031;-84
2022/10/20 04:58:32;;;;;;;8.73;6.13;;;;;;;;;;5005098;28;20044;-82
2022/10/20 05:01:03;;;;;;;9.60;5.88;;;;;;;;;;5001518;28;20031;-83
2022/10/20 05:03:30;;;;;;;10.75;6.63;;;;;;;;;;5010618;28;20029;-82
2022/10/20 05:06:08;;;;;;;10.57;6.55;;;;;;;;;;4992320;28;20030;-81
2022/10/20 05:08:34;;;;;;;10.75;6.50;;;;;;;;;;5013615;28;20441;-82
2022/10/20 05:11:00;;;;;;;9.65;6.35;;;;;;;;;;5013693;28;20036;-81
2022/10/20 05:13:26;;;;;;;9.32;6.15;;;;;;;;;;5010912;28;20433;-82
2022/10/20 05:15:52;;;;;;;12.15;6.97;;;;;;;;;;5008599;28;20026;-81
2022/10/20 05:18:18;;;;;;;11.85;6.63;;;;;;;;;;5006671;28;20046;-82
2022/10/20 05:20:44;;;;;;;10.00;6.05;;;;;;;;;;5002813;28;20112;-82
2022/10/20 05:23:10;;;;;;;10.27;6.10;;;;;;;;;;5012435;28;20034;-81
2022/10/20 05:25:37;;;;;;;10.43;6.40;;;;;;;;;;5015391;28;20038;-81
2022/10/20 05:28:03;;;;;;;11.77;7.15;;;;;;;;;;5015799;28;20087;-81
2022/10/20 05:30:29;;;;;;;10.45;6.55;;;;;;;;;;5015954;28;20375;-81
2022/10/20 05:32:55;;;;;;;11.00;6.75;;;;;;;;;;5017484;28;20032;-80
2022/10/20 05:35:21;;;;;;;11.63;7.53;;;;;;;;;;5016584;28;20017;-80
2022/10/20 05:37:47;;;;;;;11.30;7.05;;;;;;;;;;5007693;28;20022;-82
2022/10/20 05:40:13;;;;;;;10.90;7.05;;;;;;;;;;5005063;28;20576;-81
2022/10/20 05:42:39;;;;;;;12.40;7.78;;;;;;;;;;5017435;28;20030;-82
2022/10/20 05:45:05;;;;;;;13.32;7.07;;;;;;;;;;5015717;28;20025;-82
2022/10/20 05:47:31;;;;;;;11.55;7.30;;;;;;;;;;5002012;28;20026;-84
2022/10/20 05:49:57;;;;;;;11.52;7.63;;;;;;;;;;4997086;28;20090;-82
2022/10/20 05:52:23;;;;;;;12.93;7.43;;;;;;;;;;5017245;28;20061;-82
2022/10/20 05:54:50;;;;;;;12.25;7.55;;;;;;;;;;5018611;28;20021;-81
2022/10/20 05:57:16;;;;;;;13.15;8.13;;;;;;;;;;5031106;28;20490;-82
2022/10/20 05:59:42;;;;;;;12.45;7.10;;;;;;;;;;5018526;28;20026;-83
2022/10/20 06:02:09;;;;;;;13.07;7.57;;;;;;;;;;5017289;28;20040;-81
2022/10/20 06:04:35;;;;;;;13.13;8.80;;;;;;;;;;5018026;28;20022;-82
2022/10/20 06:07:01;;;;;;;16.70;9.85;;;;;;;;;;5018715;28;20057;-82
2022/10/20 06:09:27;;;;;;;13.27;8.98;;;;;;;;;;5034067;28;20022;-81
2022/10/20 06:11:53;;;;;;;17.00;9.15;;;;;;;;;;5032534;28;20108;-81
2022/10/20 06:14:21;;;;;;;15.50;8.63;;;;;;;;;;5018444;28;20021;-81
2022/10/20 06:16:50;;;;;;;15.45;9.02;;;;;;;;;;5001991;28;20022;-81
2022/10/20 06:19:16;;;;;;;19.20;9.57;;;;;;;;;;4997884;28;20050;-81
2022/10/20 06:21:42;;;;;;;20.05;10.60;;;;;;;;;;5012394;28;20048;-83
2022/10/20 06:24:09;;;;;;;19.58;11.63;;;;;;;;;;5014326;28;20029;-82
2022/10/20 06:26:35;;;;;;;17.60;10.88;;;;;;;;;;4999203;28;20077;-83
2022/10/20 06:29:02;;;;;;;17.20;11.73;;;;;;;;;;4999907;28;20055;-83
2022/10/20 06:31:29;;;;;;;19.48;13.23;;;;;;;;;;5017560;28;20033;-84
2022/10/20 06:33:56;;;;;;;18.45;14.27;;;;;;;;;;5009589;28;20673;-83
2022/10/20 06:36:23;;;;;;;17.25;11.77;;;;;;;;;;4996640;28;20022;-84
2022/10/20 06:38:52;;;;;;;20.27;13.55;;;;;;;;;;4997380;28;20029;-83
2022/10/20 06:41:18;;;;;;;20.02;13.45;;;;;;;;;;5003729;28;20057;-83
2022/10/20 06:43:45;;;;;;;16.98;10.85;;;;;;;;;;4997091;28;20033;-82
2022/10/20 06:46:12;;;;;;;16.90;10.70;;;;;;;;;;5004531;28;20037;-84
2022/10/20 06:48:38;;;;;;;19.23;13.15;;;;;;;;;;5018089;28;20107;-83
2022/10/20 06:51:06;;;;;;;21.75;15.85;;;;;;;;;;4998292;28;20512;-83
2022/10/20 06:53:33;;;;;;;21.45;14.50;;;;;;;;;;4998901;28;20105;-84
2022/10/20 06:56:00;;;;;;;15.07;10.88;;;;;;;;;;4998919;28;20093;-82
2022/10/20 06:58:27;;;;;;;16.70;10.13;;;;;;;;;;4997763;28;20019;-84
2022/10/20 07:01:04;;;;;;;18.75;11.25;;;;;;;;;;5016043;28;20026;-82
2022/10/20 07:03:31;;;;;;;15.75;10.52;;;;;;;;;;5017180;28;20025;-82
2022/10/20 07:05:57;;;;;;;19.35;10.90;;;;;;;;;;5011871;28;20026;-81
2022/10/20 07:08:23;;;;;;;13.07;8.52;;;;;;;;;;5013558;28;20033;-83
2022/10/20 07:11:07;;;;;;;11.48;7.43;;;;;;;;;;5007087;28;20041;-85
2022/10/20 07:13:34;;;;;;;10.60;7.00;;;;;;;;;;5000344;28;20041;-84
2022/10/20 07:16:00;;;;;;;13.48;7.10;;;;;;;;;;5009170;28;20482;-84
2022/10/20 07:18:27;;;;;;;11.23;7.22;;;;;;;;;;5019169;28;20022;-84
2022/10/20 07:21:00;;;;;;;13.48;7.45;;;;;;;;;;5017343;28;20060;-85
2022/10/20 07:23:27;;;;;;;12.75;7.90;;;;;;;;;;5013690;28;20037;-84
2022/10/20 07:25:59;;;;;;;11.77;7.07;;;;;;;;;;5003013;28;20034;-84
2022/10/20 07:28:25;;;;;;;10.43;7.00;;;;;;;;;;5009605;28;20033;-85
2022/10/20 07:30:51;;;;;;;10.60;7.10;;;;;;;;;;5021054;28;20034;-85
2022/10/20 07:33:17;;;;;;;11.32;7.32;;;;;;;;;;5033059;28;20025;-85
2022/10/20 07:35:43;;;;;;;10.10;7.13;;;;;;;;;;5001191;28;20386;-84
2022/10/20 07:38:09;;;;;;;9.18;6.65;;;;;;;;;;4998509;28;20041;-83
2022/10/20 07:40:35;;;;;;;10.45;6.85;;;;;;;;;;5017730;28;20030;-82
2022/10/20 07:43:01;;;;;;;10.57;6.55;;;;;;;;;;5032052;28;20045;-84
2022/10/20 07:45:27;;;;;;;9.65;6.50;;;;;;;;;;5026429;28;20041;-83
2022/10/20 07:47:53;;;;;;;12.88;6.80;;;;;;;;;;5027847;28;20026;-81
2022/10/20 07:50:19;;;;;;;11.48;6.82;;;;;;;;;;5023666;28;20034;-84
2022/10/20 07:52:49;;;;;;;10.25;7.07;;;;;;;;;;5024364;28;20021;-82
2022/10/20 07:55:15;;;;;;;11.07;6.90;;;;;;;;;;5025636;28;20026;-85
2022/10/20 07:57:41;;;;;;;9.30;6.50;;;;;;;;;;5026695;28;20026;-82
2022/10/20 08:00:07;;;;;;;11.18;6.28;;;;;;;;;;5026995;28;20148;-83
2022/10/20 08:02:33;;;;;;;8.95;5.97;;;;;;;;;;5026162;28;20040;-83
2022/10/20 08:04:59;;;;;;;9.52;6.65;;;;;;;;;;5025392;28;20077;-83
2022/10/20 08:07:25;;;;;;;9.98;6.72;;;;;;;;;;5026052;28;20038;-82
2022/10/20 08:09:51;;;;;;;10.68;6.85;;;;;;;;;;5024371;28;20026;-84
2022/10/20 08:12:17;;;;;;;9.35;6.45;;;;;;;;;;5024945;28;20037;-84
2022/10/20 08:14:43;;;;;;;10.95;6.30;;;;;;;;;;5025345;28;20048;-84
2022/10/20 08:17:10;;;;;;;11.35;7.32;;;;;;;;;;5006999;28;20030;-84
2022/10/20 08:19:36;;;;;;;9.57;6.30;;;;;;;;;;5006156;28;20054;-85
2022/10/20 08:22:02;;;;;;;9.40;6.45;;;;;;;;;;5005098;28;20050;-85
2022/10/20 08:24:29;;;;;;;11.15;6.47;;;;;;;;;;5022594;28;20033;-83
2022/10/20 08:26:55;;;;;;;11.10;6.70;;;;;;;;;;5023742;28;20037;-84
2022/10/20 08:29:21;;;;;;;11.48;7.13;;;;;;;;;;5021026;28;20041;-83
2022/10/20 08:31:47;;;;;;;10.73;7.30;;;;;;;;;;5022309;28;20033;-83
2022/10/20 08:34:13;;;;;;;14.90;8.20;;;;;;;;;;5034677;28;20046;-80
2022/10/20 08:36:39;;;;;;;11.32;7.07;;;;;;;;;;5003656;28;20026;-81
2022/10/20 08:39:05;;;;;;;11.23;7.00;;;;;;;;;;5008909;28;20089;-81
2022/10/20 08:41:33;;;;;;;11.02;8.00;;;;;;;;;;5022145;28;20036;-83
2022/10/20 08:44:01;;;;;;;10.25;6.85;;;;;;;;;;5017961;28;20061;-82
2022/10/20 08:46:32;;;;;;;11.73;6.90;;;;;;;;;;5021574;28;20032;-83
2022/10/20 08:48:58;;;;;;;11.38;7.13;;;;;;;;;;5019211;28;20104;-82
2022/10/20 08:51:27;;;;;;;12.63;7.43;;;;;;;;;;5005331;28;20030;-82
2022/10/20 08:53:55;;;;;;;11.13;7.28;;;;;;;;;;5016865;28;20022;-82
2022/10/20 08:56:23;;;;;;;11.07;7.13;;;;;;;;;;5021156;28;20052;-83
2022/10/20 08:58:49;;;;;;;10.15;7.00;;;;;;;;;;5022193;28;20022;-82
2022/10/20 09:01:18;;;;;;;13.88;6.72;;;;;;;;;;5021601;28;20025;-82
2022/10/20 09:03:44;;;;;;;10.05;6.03;;;;;;;;;;5019772;28;20152;-81
2022/10/20 09:06:16;;;;;;;12.07;7.15;;;;;;;;;;5020606;28;20033;-81
2022/10/20 09:08:43;;;;;;;9.70;5.72;;;;;;;;;;5019386;28;20029;-81
2022/10/20 09:11:13;;;;;;;10.07;6.60;;;;;;;;;;5021321;28;20034;-80
2022/10/20 09:13:40;;;;;;;13.10;8.00;;;;;;;;;;5015363;28;20129;-81
2022/10/20 09:16:10;;;;;;;11.30;7.47;;;;;;;;;;5020296;28;20385;-80
2022/10/20 09:18:36;;;;;;;13.25;7.43;;;;;;;;;;5020330;28;20033;-82
2022/10/20 09:21:02;;;;;;;10.30;6.70;;;;;;;;;;5021092;28;20109;-82
2022/10/20 09:23:34;;;;;;;11.82;7.57;;;;;;;;;;5018508;28;20128;-82
2022/10/20 09:26:00;;;;;;;12.23;7.70;;;;;;;;;;5018393;28;20081;-80
2022/10/20 09:28:27;;;;;;;11.68;7.38;;;;;;;;;;5000035;28;20026;-81
2022/10/20 09:30:54;;;;;;;14.27;7.07;;;;;;;;;;4999236;28;20034;-80
2022/10/20 09:33:38;;;;;;;10.30;6.72;;;;;;;;;;5009040;28;20109;-80
2022/10/20 09:36:05;;;;;;;13.00;7.80;;;;;;;;;;5007735;28;20030;-82
2022/10/20 09:38:33;;;;;;;11.93;7.15;;;;;;;;;;5029418;28;20033;-79
2022/10/20 09:41:09;;;;;;;10.52;7.60;;;;;;;;;;5040618;28;20034;-83
2022/10/20 09:43:37;;;;;;;11.25;6.75;;;;;;;;;;5006248;28;20037;-82
2022/10/20 09:46:05;;;;;;;9.18;6.40;;;;;;;;;;5023698;28;20034;-83
2022/10/20 09:48:32;;;;;;;11.35;6.40;;;;;;;;;;5005221;28;20580;-82
2022/10/20 09:50:58;;;;;;;8.77;6.13;;;;;;;;;;5016480;28;20030;-82
2022/10/20 09:53:44;;;;;;;10.50;6.43;;;;;;;;;;5018401;28;20026;-81
2022/10/20 09:56:10;;;;;;;10.45;6.25;;;;;;;;;;5018961;28;20064;-81
2022/10/20 09:58:38;;;;;;;10.57;6.32;;;;;;;;;;5018871;28;20022;-82
2022/10/20 10:01:12;;;;;;;8.95;6.10;;;;;;;;;;5016490;28;20034;-81
2022/10/20 10:03:45;;;;;;;10.45;6.18;;;;;;;;;;5015903;28;20089;-82
2022/10/20 10:06:29;;;;;;;11.02;5.97;;;;;;;;;;5008360;28;20030;-79
2022/10/20 10:08:56;;;;;;;8.48;5.90;;;;;;;;;;5003921;28;20046;-82
2022/10/20 10:11:26;;;;;;;9.50;5.95;;;;;;;;;;5002463;28;20060;-83
2022/10/20 10:13:52;;;;;;;9.95;6.35;;;;;;;;;;5004664;28;20054;-83
2022/10/20 10:16:19;;;;;;;11.00;6.32;;;;;;;;;;5015058;28;20053;-81
2022/10/20 10:18:54;;;;;;;9.38;5.65;;;;;;;;;;5020876;28;20057;-81
2022/10/20 10:21:20;;;;;;;8.40;5.20;;;;;;;;;;5022083;28;20096;-80
2022/10/20 10:23:50;;;;;;;8.65;5.50;;;;;;;;;;5016914;28;20034;-83
2022/10/20 10:26:32;;;;;;;9.10;5.53;;;;;;;;;;5024446;28;20034;-83
2022/10/20 10:28:58;;;;;;;9.10;4.87;;;;;;;;;;5013484;28;20573;-82
2022/10/20 10:31:25;;;;;;;8.60;5.05;;;;;;;;;;5027341;28;20347;-83
2022/10/20 10:34:20;;;;;;;8.23;4.55;;;;;;;;;;5024499;28;20111;-85
2022/10/20 10:36:46;;;;;;;7.32;5.18;;;;;;;;;;4957268;28;20043;-80
2022/10/20 10:39:13;;;;;;;8.15;5.10;;;;;;;;;;5045855;28;20045;-84
2022/10/20 10:41:40;;;;;;;7.63;5.13;;;;;;;;;;5027999;28;20177;-82
2022/10/20 10:44:18;;;;;;;8.27;5.15;;;;;;;;;;5034196;28;20046;-82
2022/10/20 10:46:51;;;;;;;10.52;5.63;;;;;;;;;;5021176;28;20037;-83
2022/10/20 10:49:20;;;;;;;8.93;5.25;;;;;;;;;;5035179;28;20179;-83
2022/10/20 10:52:05;;;;;;;6.90;4.55;;;;;;;;;;5018220;28;20490;-83
2022/10/20 10:54:31;;;;;;;8.68;4.75;;;;;;;;;;5014070;28;20033;-83
2022/10/20 10:57:03;;;;;;;11.18;4.63;;;;;;;;;;5008986;28;20322;-83
2022/10/20 10:59:32;;;;;;;7.22;4.35;;;;;;;;;;5009061;28;20030;-84
2022/10/20 11:02:17;;;;;;;6.57;4.43;;;;;;;;;;5021310;28;20089;-84
2022/10/20 11:04:43;;;;;;;7.35;4.70;;;;;;;;;;5001233;28;20061;-84
2022/10/20 11:07:15;;;;;;;7.05;4.75;;;;;;;;;;5003576;28;20027;-85
2022/10/20 11:09:54;;;;;;;8.82;4.72;;;;;;;;;;5000601;28;20022;-85
2022/10/20 11:12:39;;;;;;;8.60;4.90;;;;;;;;;;5014008;28;20040;-85
2022/10/20 11:15:12;;;;;;;8.60;5.10;;;;;;;;;;5035039;28;20022;-85
2022/10/20 11:17:58;;;;;;;6.75;3.92;;;;;;;;;;5025750;28;20512;-83
2022/10/20 11:20:28;;;;;;;7.20;4.60;;;;;;;;;;4997930;28;20048;-83
2022/10/20 11:23:13;;;;;;;8.10;4.80;;;;;;;;;;5040777;28;20036;-84
2022/10/20 11:25:44;;;;;;;6.93;4.68;;;;;;;;;;5019541;28;20065;-84
2022/10/20 11:28:24;;;;;;;7.65;5.25;;;;;;;;;;5014644;28;20030;-82
2022/10/20 11:30:50;;;;;;;8.13;4.65;;;;;;;;;;5014115;28;20093;-82
2022/10/20 11:33:20;;;;;;;8.65;4.88;;;;;;;;;;5028279;28;20387;-83
2022/10/20 11:35:46;;;;;;;8.20;4.72;;;;;;;;;;5013617;28;20030;-81
2022/10/20 11:38:15;;;;;;;6.90;4.60;;;;;;;;;;5012693;28;20025;-83
2022/10/20 11:40:48;;;;;;;7.68;4.45;;;;;;;;;;5014227;28;20037;-83
2022/10/20 11:43:24;;;;;;;8.82;5.18;;;;;;;;;;5005540;28;20398;-83
2022/10/20 11:46:02;;;;;;;7.25;4.18;;;;;;;;;;5013446;28;20494;-84
2022/10/20 11:48:34;;;;;;;9.32;4.93;;;;;;;;;;5014687;28;20033;-83
2022/10/20 11:51:00;;;;;;;;;;;;;;;;;;5006199;28;20022;-83
2022/10/20 11:53:40;;;;;;;7.32;4.65;;;;;;;;;;5006265;28;19910;-81
2022/10/20 11:56:06;;;;;;;8.13;4.80;;;;;;;;;;5016335;28;20034;-82
2022/10/20 11:58:41;;;;;;;6.78;4.28;;;;;;;;;;5012964;28;20018;-82
2022/10/20 12:01:10;;;;;;;10.55;4.75;;;;;;;;;;5029862;28;20041;-82
2022/10/20 12:03:52;;;;;;;6.55;4.40;;;;;;;;;;5005835;28;20034;-84
2022/10/20 12:06:27;;;;;;;7.10;4.60;;;;;;;;;;5002158;28;20022;-80
2022/10/20 12:09:00;;;;;;;7.40;4.55;;;;;;;;;;5003043;28;20035;-82
2022/10/20 12:11:33;;;;;;;7.25;4.78;;;;;;;;;;5010885;28;20098;-81
2022/10/20 12:14:19;;;;;;;7.35;4.85;;;;;;;;;;5021007;28;20036;-84
2022/10/20 12:16:54;;;;;;;7.50;4.57;;;;;;;;;;5010318;28;20029;-82
2022/10/20 12:19:21;;;;;;;7.18;4.75;;;;;;;;;;5018678;28;20026;-80
2022/10/20 12:22:26;;;;;;;7.13;4.30;;;;;;;;;;5003401;28;20052;-82
2022/10/20 12:24:52;;;;;;;7.43;4.80;;;;;;;;;;5000132;28;20113;-82
2022/10/20 12:27:20;;;;;;;8.50;5.10;;;;;;;;;;4999231;28;20072;-82
2022/10/20 12:29:48;;;;;;;7.80;4.38;;;;;;;;;;5000324;28;20034;-82
2022/10/20 12:32:32;;;;;;;8.88;4.82;;;;;;;;;;5001687;28;20038;-81
2022/10/20 12:34:59;;;;;;;7.45;3.95;;;;;;;;;;5001275;28;20082;-82
2022/10/20 12:37:29;;;;;;;7.03;4.25;;;;;;;;;;5012997;28;20062;-80
2022/10/20 12:39:56;;;;;;;7.68;4.90;;;;;;;;;;5019297;28;20426;-82
2022/10/20 12:42:27;;;;;;;6.93;4.50;;;;;;;;;;5013485;28;20022;-83
2022/10/20 12:44:53;;;;;;;7.13;4.20;;;;;;;;;;5020391;28;20040;-83
2022/10/20 12:47:30;;;;;;;6.65;4.15;;;;;;;;;;5018359;28;20037;-82
2022/10/20 12:49:59;;;;;;;7.20;4.57;;;;;;;;;;5018322;28;20425;-83
2022/10/20 12:52:31;;;;;;;7.85;4.82;;;;;;;;;;5017986;28;20029;-81
2022/10/20 12:55:08;;;;;;;8.45;4.35;;;;;;;;;;5018119;28;20022;-81
2022/10/20 12:57:41;;;;;;;7.72;4.63;;;;;;;;;;5018181;28;20030;-83
2022/10/20 13:00:27;;;;;;;7.35;4.63;;;;;;;;;;5018186;28;20141;-82
2022/10/20 13:02:57;;;;;;;8.57;4.32;;;;;;;;;;5017248;28;20026;-83
2022/10/20 13:05:23;;;;;;;9.63;4.70;;;;;;;;;;5017621;28;20036;-81
2022/10/20 13:07:51;;;;;;;7.88;4.57;;;;;;;;;;5017910;28;20054;-81
2022/10/20 13:10:29;;;;;;;8.23;4.55;;;;;;;;;;5017703;28;20029;-84
2022/10/20 13:12:55;;;;;;;8.95;4.18;;;;;;;;;;5008302;28;20034;-82
2022/10/20 13:15:21;;;;;;;8.05;4.55;;;;;;;;;;5006278;28;20041;-83
2022/10/20 13:17:51;;;;;;;7.10;4.43;;;;;;;;;;5017324;28;20030;-83
2022/10/20 13:20:27;;;;;;;6.82;4.63;;;;;;;;;;5017062;28;20044;-83
2022/10/20 13:22:54;;;;;;;6.50;4.25;;;;;;;;;;5018202;28;20038;-82
2022/10/20 13:25:35;;;;;;;8.15;4.45;;;;;;;;;;5018248;28;20024;-81
2022/10/20 13:28:06;;;;;;;7.28;4.53;;;;;;;;;;5017459;28;20497;-83
2022/10/20 13:30:33;;;;;;;8.77;4.82;;;;;;;;;;5032989;28;20105;-80
2022/10/20 13:33:01;;;;;;;8.63;4.43;;;;;;;;;;5016934;28;20053;-80
2022/10/20 13:35:41;;;;;;;9.65;4.50;;;;;;;;;;5018002;28;20032;-82
2022/10/20 13:38:15;;;;;;;8.20;4.57;;;;;;;;;;5017975;28;20022;-80
2022/10/20 13:41:04;;;;;;;8.13;4.65;;;;;;;;;;5021705;28;20034;-83
2022/10/20 13:43:50;;;;;;;8.55;4.75;;;;;;;;;;5011769;28;20198;-83
2022/10/20 13:46:30;;;;;;;8.75;4.20;;;;;;;;;;5022394;28;20143;-85
2022/10/20 13:48:56;;;;;;;6.78;4.05;;;;;;;;;;5009186;28;20026;-83
2022/10/20 13:51:27;;;;;;;7.30;3.90;;;;;;;;;;5021342;28;20060;-83
2022/10/20 13:53:59;;;;;;;7.90;4.35;;;;;;;;;;5014362;28;20026;-81
2022/10/20 13:56:29;;;;;;;7.43;5.10;;;;;;;;;;5032805;28;20022;-80
2022/10/20 13:58:59;;;;;;;8.00;4.05;;;;;;;;;;5018566;28;20022;-81
2022/10/20 14:01:26;;;;;;;7.70;4.32;;;;;;;;;;5013353;28;20030;-83
2022/10/20 14:03:52;;;;;;;7.07;3.92;;;;;;;;;;5019029;28;20026;-80
2022/10/20 14:06:27;;;;;;;7.95;4.50;;;;;;;;;;5017974;28;20117;-81
2022/10/20 14:08:57;;;;;;;8.18;4.40;;;;;;;;;;5036112;28;20038;-82
2022/10/20 14:11:23;;;;;;;8.32;4.20;;;;;;;;;;5017909;28;20022;-83
2022/10/20 14:13:49;;;;;;;10.27;4.28;;;;;;;;;;5013127;28;20029;-83
2022/10/20 14:16:20;;;;;;;7.97;4.38;;;;;;;;;;5012141;28;20022;-80
2022/10/20 14:18:59;;;;;;;8.70;4.90;;;;;;;;;;5007610;28;20076;-80
2022/10/20 14:21:27;;;;;;;10.95;4.10;;;;;;;;;;5001923;28;20105;-84
2022/10/20 14:23:55;;;;;;;7.07;3.97;;;;;;;;;;5005476;28;20056;-81
2022/10/20 14:26:22;;;;;;;9.00;3.85;;;;;;;;;;5014991;28;20489;-82
2022/10/20 14:28:49;;;;;;;8.48;4.03;;;;;;;;;;5017774;28;20025;-82
2022/10/20 14:31:15;;;;;;;7.65;4.10;;;;;;;;;;4998408;28;20357;-81
2022/10/20 14:33:45;;;;;;;8.63;4.70;;;;;;;;;;4999500;28;20046;-81
2022/10/20 14:36:17;;;;;;;8.60;5.68;;;;;;;;;;5008269;28;20018;-84
2022/10/20 14:38:45;;;;;;;7.40;4.50;;;;;;;;;;5030345;28;20117;-84
2022/10/20 14:41:12;;;;;;;6.90;4.20;;;;;;;;;;5004442;28;20030;-84
2022/10/20 14:43:46;;;;;;;8.63;4.40;;;;;;;;;;4999632;28;20442;-83
2022/10/20 14:46:21;;;;;;;6.80;4.00;;;;;;;;;;5001280;28;20030;-82